sensor_id;sensor_type;location;lat;lon;timestamp;pressure;altitude;pressure_sealevel;temperature;humidity
65010;BME280;51556;50.002;22.014;2023-01-10T06:18:45;98450.31;;;8.87;70.26
65010;BME280;51556;50.002;22.014;2023-01-10T06:21:14;98445.30;;;8.92;69.52
65010;BME280;51556;50.002;22.014;2023-01-10T06:23:39;98452.10;;;8.77;69.69
65010;BME280;51556;50.002;22.014;2023-01-10T06:26:05;98451.61;;;8.60;70.09
65010;BME280;51556;50.002;22.014;2023-01-10T06:28:31;98455.94;;;8.39;70.34
65010;BME280;51556;50.002;22.014;2023-01-10T06:30:59;98459.28;;;8.21;70.89
65010;BME280;51556;50.002;22.014;2023-01-10T06:33:24;98461.34;;;8.12;71.51
65010;BME280;51556;50.002;22.014;2023-01-10T06:35:50;98465.02;;;8.05;71.65
65010;BME280;51556;50.002;22.014;2023-01-10T06:38:16;98464.81;;;8.00;71.51
65010;BME280;51556;50.002;22.014;2023-01-10T06:40:42;98466.55;;;7.95;71.80
65010;BME280;51556;50.002;22.014;2023-01-10T06:43:08;98475.75;;;7.92;72.06
65010;BME280;51556;50.002;22.014;2023-01-10T06:45:33;98480.38;;;7.89;71.82
65010;BME280;51556;50.002;22.014;2023-01-10T06:47:59;98488.45;;;7.83;71.99
65010;BME280;51556;50.002;22.014;2023-01-10T06:50:24;98487.34;;;7.79;72.02
65010;BME280;51556;50.002;22.014;2023-01-10T06:53:01;98489.31;;;7.78;72.02
65010;BME280;51556;50.002;22.014;2023-01-10T06:55:27;98491.42;;;7.71;72.11
65010;BME280;51556;50.002;22.014;2023-01-10T06:58:01;98499.05;;;7.68;72.21
65010;BME280;51556;50.002;22.014;2023-01-10T07:00:28;98502.55;;;7.62;72.58
65010;BME280;51556;50.002;22.014;2023-01-10T07:03:02;98505.91;;;7.48;72.81
65010;BME280;51556;50.002;22.014;2023-01-10T07:05:28;98509.21;;;7.35;72.83
65010;BME280;51556;50.002;22.014;2023-01-10T07:07:55;98517.20;;;7.24;72.96
65010;BME280;51556;50.002;22.014;2023-01-10T07:10:21;98525.60;;;7.17;73.20
65010;BME280;51556;50.002;22.014;2023-01-10T07:12:47;98529.01;;;7.14;73.33
65010;BME280;51556;50.002;22.014;2023-01-10T07:15:12;98531.27;;;7.07;73.67
65010;BME280;51556;50.002;22.014;2023-01-10T07:17:38;98537.53;;;7.09;73.79
65010;BME280;51556;50.002;22.014;2023-01-10T07:20:04;98536.64;;;7.09;73.68
65010;BME280;51556;50.002;22.014;2023-01-10T07:22:29;98538.61;;;7.08;73.93
65010;BME280;51556;50.002;22.014;2023-01-10T07:24:55;98537.30;;;7.04;74.03
65010;BME280;51556;50.002;22.014;2023-01-10T07:27:20;98540.63;;;6.97;73.97
65010;BME280;51556;50.002;22.014;2023-01-10T07:29:46;98538.70;;;6.97;74.25
65010;BME280;51556;50.002;22.014;2023-01-10T07:32:11;98539.67;;;7.01;74.25
65010;BME280;51556;50.002;22.014;2023-01-10T07:34:37;98534.42;;;7.01;74.16
65010;BME280;51556;50.002;22.014;2023-01-10T07:37:02;98536.17;;;7.01;74.46
65010;BME280;51556;50.002;22.014;2023-01-10T07:39:28;98536.98;;;7.04;74.51
65010;BME280;51556;50.002;22.014;2023-01-10T07:41:53;98533.46;;;7.04;74.36
65010;BME280;51556;50.002;22.014;2023-01-10T07:44:19;98527.44;;;7.00;74.20
65010;BME280;51556;50.002;22.014;2023-01-10T07:46:44;98527.11;;;6.99;74.36
65010;BME280;51556;50.002;22.014;2023-01-10T07:49:10;98528.31;;;7.01;74.41
65010;BME280;51556;50.002;22.014;2023-01-10T07:51:35;98528.91;;;7.04;74.53
65010;BME280;51556;50.002;22.014;2023-01-10T07:54:02;98529.20;;;6.99;74.34
65010;BME280;51556;50.002;22.014;2023-01-10T07:56:27;98536.70;;;7.01;74.69
65010;BME280;51556;50.002;22.014;2023-01-10T07:58:53;98537.35;;;7.03;74.84
65010;BME280;51556;50.002;22.014;2023-01-10T08:01:19;98541.14;;;7.05;74.53
65010;BME280;51556;50.002;22.014;2023-01-10T08:03:45;98543.27;;;7.10;74.59
65010;BME280;51556;50.002;22.014;2023-01-10T08:06:10;98547.27;;;7.12;74.80
65010;BME280;51556;50.002;22.014;2023-01-10T08:08:36;98547.20;;;7.14;74.53
65010;BME280;51556;50.002;22.014;2023-01-10T08:11:02;98546.91;;;7.12;74.64
65010;BME280;51556;50.002;22.014;2023-01-10T08:13:29;98545.09;;;7.14;74.80
65010;BME280;51556;50.002;22.014;2023-01-10T08:15:54;98548.34;;;7.18;74.54
65010;BME280;51556;50.002;22.014;2023-01-10T08:18:21;98550.98;;;7.17;74.68
65010;BME280;51556;50.002;22.014;2023-01-10T08:20:48;98549.52;;;7.19;74.90
65010;BME280;51556;50.002;22.014;2023-01-10T08:23:14;98553.70;;;7.20;74.65
65010;BME280;51556;50.002;22.014;2023-01-10T08:25:40;98557.96;;;7.25;74.86
65010;BME280;51556;50.002;22.014;2023-01-10T08:28:05;98557.52;;;7.28;74.56
65010;BME280;51556;50.002;22.014;2023-01-10T08:30:31;98565.39;;;7.29;74.69
65010;BME280;51556;50.002;22.014;2023-01-10T08:32:56;98570.91;;;7.25;74.29
65010;BME280;51556;50.002;22.014;2023-01-10T08:35:22;98576.77;;;7.15;74.35
65010;BME280;51556;50.002;22.014;2023-01-10T08:37:47;98588.29;;;7.08;74.60
65010;BME280;51556;50.002;22.014;2023-01-10T08:40:13;98597.73;;;7.02;74.85
65010;BME280;51556;50.002;22.014;2023-01-10T08:42:38;98605.42;;;7.03;74.94
65010;BME280;51556;50.002;22.014;2023-01-10T08:45:04;98607.45;;;7.05;75.11
65010;BME280;51556;50.002;22.014;2023-01-10T08:47:30;98613.98;;;7.03;75.08
65010;BME280;51556;50.002;22.014;2023-01-10T08:49:55;98623.40;;;6.97;75.16
65010;BME280;51556;50.002;22.014;2023-01-10T08:52:21;98624.95;;;6.90;75.37
65010;BME280;51556;50.002;22.014;2023-01-10T08:54:46;98627.59;;;6.90;75.58
65010;BME280;51556;50.002;22.014;2023-01-10T08:57:12;98632.45;;;6.91;75.21
65010;BME280;51556;50.002;22.014;2023-01-10T08:59:38;98638.16;;;6.94;75.41
65010;BME280;51556;50.002;22.014;2023-01-10T09:02:03;98644.05;;;6.97;75.66
65010;BME280;51556;50.002;22.014;2023-01-10T09:04:29;98644.59;;;6.96;75.32
65010;BME280;51556;50.002;22.014;2023-01-10T09:06:55;98642.52;;;6.95;75.27
65010;BME280;51556;50.002;22.014;2023-01-10T09:09:20;98646.44;;;6.99;75.64
65010;BME280;51556;50.002;22.014;2023-01-10T09:11:46;98649.75;;;7.07;75.87
65010;BME280;51556;50.002;22.014;2023-01-10T09:14:11;98645.41;;;7.13;75.79
65010;BME280;51556;50.002;22.014;2023-01-10T09:16:37;98648.95;;;7.19;75.72
65010;BME280;51556;50.002;22.014;2023-01-10T09:19:03;98650.17;;;7.26;75.46
65010;BME280;51556;50.002;22.014;2023-01-10T09:21:28;98654.27;;;7.31;75.20
65010;BME280;51556;50.002;22.014;2023-01-10T09:23:54;98660.05;;;7.31;75.33
65010;BME280;51556;50.002;22.014;2023-01-10T09:26:19;98661.94;;;7.33;74.94
65010;BME280;51556;50.002;22.014;2023-01-10T09:28:45;98661.63;;;7.31;75.28
65010;BME280;51556;50.002;22.014;2023-01-10T09:31:10;98654.15;;;7.36;75.07
65010;BME280;51556;50.002;22.014;2023-01-10T09:33:37;98648.45;;;7.41;75.56
65010;BME280;51556;50.002;22.014;2023-01-10T09:36:03;98652.85;;;7.46;74.75
65010;BME280;51556;50.002;22.014;2023-01-10T09:38:29;98660.13;;;7.50;74.89
65010;BME280;51556;50.002;22.014;2023-01-10T09:46:49;98666.30;;;7.55;74.51
65010;BME280;51556;50.002;22.014;2023-01-10T09:51:52;98670.11;;;7.35;74.54
65010;BME280;51556;50.002;22.014;2023-01-10T09:54:27;98671.01;;;7.34;74.85
65010;BME280;51556;50.002;22.014;2023-01-10T09:56:54;98676.39;;;7.36;74.74
65010;BME280;51556;50.002;22.014;2023-01-10T09:59:24;98674.23;;;7.39;74.89
65010;BME280;51556;50.002;22.014;2023-01-10T10:01:56;98677.77;;;7.44;74.93
65010;BME280;51556;50.002;22.014;2023-01-10T10:04:29;98678.56;;;7.47;74.74
65010;BME280;51556;50.002;22.014;2023-01-10T10:06:56;98678.36;;;7.48;74.79
65010;BME280;51556;50.002;22.014;2023-01-10T10:09:27;98681.88;;;7.48;75.10
65010;BME280;51556;50.002;22.014;2023-01-10T10:12:08;98675.11;;;7.53;75.03
65010;BME280;51556;50.002;22.014;2023-01-10T10:14:48;98666.02;;;7.59;74.99
65010;BME280;51556;50.002;22.014;2023-01-10T10:22:56;98671.87;;;7.64;74.81
65010;BME280;51556;50.002;22.014;2023-01-10T10:36:46;98701.77;;;7.73;74.38
65010;BME280;51556;50.002;22.014;2023-01-10T10:39:18;98705.02;;;7.77;74.62
65010;BME280;51556;50.002;22.014;2023-01-10T10:41:47;98695.41;;;7.82;74.60
65010;BME280;51556;50.002;22.014;2023-01-10T10:44:22;98694.41;;;7.86;74.70
65010;BME280;51556;50.002;22.014;2023-01-10T10:46:51;98685.38;;;7.90;74.48
65010;BME280;51556;50.002;22.014;2023-01-10T10:49:21;98686.17;;;7.93;74.45
65010;BME280;51556;50.002;22.014;2023-01-10T10:51:52;98693.34;;;7.94;74.31
65010;BME280;51556;50.002;22.014;2023-01-10T10:54:18;98688.13;;;7.92;74.64
65010;BME280;51556;50.002;22.014;2023-01-10T10:56:44;98682.78;;;7.89;74.06
65010;BME280;51556;50.002;22.014;2023-01-10T10:59:15;98687.86;;;7.89;74.57
65010;BME280;51556;50.002;22.014;2023-01-10T11:01:41;98683.84;;;7.88;74.56
65010;BME280;51556;50.002;22.014;2023-01-10T11:04:13;98686.98;;;7.89;75.01
65010;BME280;51556;50.002;22.014;2023-01-10T11:06:41;98691.82;;;7.92;75.04
65010;BME280;51556;50.002;22.014;2023-01-10T11:09:14;98699.45;;;7.95;74.77
65010;BME280;51556;50.002;22.014;2023-01-10T11:11:45;98713.31;;;8.01;74.70
65010;BME280;51556;50.002;22.014;2023-01-10T11:14:14;98725.20;;;8.02;74.67
65010;BME280;51556;50.002;22.014;2023-01-10T11:16:41;98743.59;;;8.03;74.23
65010;BME280;51556;50.002;22.014;2023-01-10T11:21:49;98760.92;;;8.04;74.35
65010;BME280;51556;50.002;22.014;2023-01-10T11:26:44;98761.38;;;8.07;74.20
65010;BME280;51556;50.002;22.014;2023-01-10T11:29:33;98760.61;;;8.10;74.52
65010;BME280;51556;50.002;22.014;2023-01-10T11:32:08;98765.41;;;8.14;74.29
65010;BME280;51556;50.002;22.014;2023-01-10T11:34:39;98768.65;;;8.17;74.26
65010;BME280;51556;50.002;22.014;2023-01-10T11:39:40;98778.14;;;8.23;74.23
65010;BME280;51556;50.002;22.014;2023-01-10T11:42:32;98781.38;;;8.26;74.18
65010;BME280;51556;50.002;22.014;2023-01-10T11:50:20;98791.52;;;8.37;73.26
65010;BME280;51556;50.002;22.014;2023-01-10T11:52:47;98790.80;;;8.36;73.33
65010;BME280;51556;50.002;22.014;2023-01-10T11:55:19;98793.65;;;8.35;73.39
65010;BME280;51556;50.002;22.014;2023-01-10T11:57:45;98787.38;;;8.33;73.14
65010;BME280;51556;50.002;22.014;2023-01-10T12:00:18;98782.19;;;8.29;73.07
65010;BME280;51556;50.002;22.014;2023-01-10T12:02:44;98782.43;;;8.26;73.01
65010;BME280;51556;50.002;22.014;2023-01-10T12:05:17;98788.17;;;8.29;73.44
65010;BME280;51556;50.002;22.014;2023-01-10T12:10:20;98799.01;;;8.30;73.13
65010;BME280;51556;50.002;22.014;2023-01-10T12:12:58;98804.23;;;8.32;72.97
65010;BME280;51556;50.002;22.014;2023-01-10T12:15:30;98807.72;;;8.33;73.01
65010;BME280;51556;50.002;22.014;2023-01-10T12:17:58;98818.71;;;8.35;73.25
65010;BME280;51556;50.002;22.014;2023-01-10T12:20:30;98822.74;;;8.36;73.12
65010;BME280;51556;50.002;22.014;2023-01-10T12:22:59;98827.79;;;8.37;73.25
65010;BME280;51556;50.002;22.014;2023-01-10T12:25:35;98836.16;;;8.39;73.29
65010;BME280;51556;50.002;22.014;2023-01-10T12:28:01;98843.98;;;8.43;73.35
65010;BME280;51556;50.002;22.014;2023-01-10T12:30:34;98852.00;;;8.44;73.29
65010;BME280;51556;50.002;22.014;2023-01-10T12:33:09;98854.08;;;8.45;73.51
65010;BME280;51556;50.002;22.014;2023-01-10T12:35:41;98848.63;;;8.46;73.07
65010;BME280;51556;50.002;22.014;2023-01-10T12:38:35;98856.54;;;8.45;72.92
65010;BME280;51556;50.002;22.014;2023-01-10T12:41:35;98868.79;;;8.46;73.05
65010;BME280;51556;50.002;22.014;2023-01-10T12:44:35;98879.29;;;8.48;72.81
65010;BME280;51556;50.002;22.014;2023-01-10T12:50:04;98877.13;;;8.50;72.99
65010;BME280;51556;50.002;22.014;2023-01-10T12:52:47;98880.45;;;8.50;73.29
65010;BME280;51556;50.002;22.014;2023-01-10T12:55:15;98883.92;;;8.51;72.95
65010;BME280;51556;50.002;22.014;2023-01-10T12:57:41;98876.63;;;8.54;73.88
65010;BME280;51556;50.002;22.014;2023-01-10T13:00:20;98869.81;;;8.60;73.73
65010;BME280;51556;50.002;22.014;2023-01-10T13:02:51;98862.38;;;8.63;73.22
65010;BME280;51556;50.002;22.014;2023-01-10T13:05:20;98869.48;;;8.67;72.85
65010;BME280;51556;50.002;22.014;2023-01-10T13:07:48;98874.49;;;8.70;72.76
65010;BME280;51556;50.002;22.014;2023-01-10T13:10:18;98875.51;;;8.71;73.02
65010;BME280;51556;50.002;22.014;2023-01-10T13:13:14;98875.31;;;8.72;72.80
65010;BME280;51556;50.002;22.014;2023-01-10T13:15:47;98891.88;;;8.70;72.73
65010;BME280;51556;50.002;22.014;2023-01-10T13:18:29;98906.27;;;8.69;72.84
65010;BME280;51556;50.002;22.014;2023-01-10T13:21:09;98908.58;;;8.68;72.89
65010;BME280;51556;50.002;22.014;2023-01-10T13:23:49;98910.56;;;8.65;72.33
65010;BME280;51556;50.002;22.014;2023-01-10T13:26:16;98916.97;;;8.55;72.33
65010;BME280;51556;50.002;22.014;2023-01-10T13:28:59;98924.16;;;8.49;72.56
65010;BME280;51556;50.002;22.014;2023-01-10T13:31:31;98924.39;;;8.46;72.83
65010;BME280;51556;50.002;22.014;2023-01-10T13:34:00;98921.21;;;8.48;73.18
65010;BME280;51556;50.002;22.014;2023-01-10T13:36:39;98924.34;;;8.49;72.93
65010;BME280;51556;50.002;22.014;2023-01-10T13:39:19;98921.61;;;8.45;73.07
65010;BME280;51556;50.002;22.014;2023-01-10T13:52:51;98935.92;;;8.48;72.81
65010;BME280;51556;50.002;22.014;2023-01-10T13:55:23;98940.25;;;8.43;72.91
65010;BME280;51556;50.002;22.014;2023-01-10T14:06:00;98952.02;;;8.34;73.31
65010;BME280;51556;50.002;22.014;2023-01-10T14:08:31;98955.31;;;8.27;73.37
65010;BME280;51556;50.002;22.014;2023-01-10T14:11:09;98961.17;;;8.24;73.21
65010;BME280;51556;50.002;22.014;2023-01-10T14:13:36;98963.48;;;8.22;73.19
65010;BME280;51556;50.002;22.014;2023-01-10T14:16:02;98974.67;;;8.24;73.58
65010;BME280;51556;50.002;22.014;2023-01-10T14:18:37;98977.45;;;8.25;73.87
65010;BME280;51556;50.002;22.014;2023-01-10T14:21:04;98977.06;;;8.27;73.62
65010;BME280;51556;50.002;22.014;2023-01-10T14:23:39;98978.18;;;8.24;73.78
65010;BME280;51556;50.002;22.014;2023-01-10T14:26:13;98979.71;;;8.18;73.82
65010;BME280;51556;50.002;22.014;2023-01-10T14:28:42;98980.36;;;8.13;73.93
65010;BME280;51556;50.002;22.014;2023-01-10T14:31:19;98979.27;;;8.06;73.83
65010;BME280;51556;50.002;22.014;2023-01-10T14:33:46;98980.92;;;8.03;74.11
65010;BME280;51556;50.002;22.014;2023-01-10T14:36:25;98983.96;;;8.00;74.13
65010;BME280;51556;50.002;22.014;2023-01-10T14:38:56;98985.45;;;7.96;74.28
65010;BME280;51556;50.002;22.014;2023-01-10T14:41:42;98988.42;;;7.88;74.28
65010;BME280;51556;50.002;22.014;2023-01-10T14:44:19;98987.52;;;7.80;74.29
65010;BME280;51556;50.002;22.014;2023-01-10T14:51:44;98999.48;;;7.70;74.97
65010;BME280;51556;50.002;22.014;2023-01-10T14:54:11;99007.14;;;7.63;74.73
65010;BME280;51556;50.002;22.014;2023-01-10T14:56:40;99003.74;;;7.58;75.19
65010;BME280;51556;50.002;22.014;2023-01-10T14:59:29;99003.06;;;7.57;75.07
65010;BME280;51556;50.002;22.014;2023-01-10T15:02:18;99002.51;;;7.59;75.61
65010;BME280;51556;50.002;22.014;2023-01-10T15:05:10;99006.67;;;7.60;75.32
65010;BME280;51556;50.002;22.014;2023-01-10T15:07:39;99003.19;;;7.60;75.49
65010;BME280;51556;50.002;22.014;2023-01-10T15:10:23;99007.05;;;7.59;75.37
65010;BME280;51556;50.002;22.014;2023-01-10T15:12:52;99009.80;;;7.61;75.64
65010;BME280;51556;50.002;22.014;2023-01-10T15:15:23;99005.69;;;7.66;75.51
65010;BME280;51556;50.002;22.014;2023-01-10T15:17:51;99005.30;;;7.68;75.44
65010;BME280;51556;50.002;22.014;2023-01-10T15:20:18;99005.42;;;7.71;75.27
65010;BME280;51556;50.002;22.014;2023-01-10T15:23:02;99007.85;;;7.72;75.41
65010;BME280;51556;50.002;22.014;2023-01-10T15:25:31;99011.27;;;7.68;75.22
65010;BME280;51556;50.002;22.014;2023-01-10T15:27:58;99014.91;;;7.60;75.95
65010;BME280;51556;50.002;22.014;2023-01-10T15:30:28;99014.48;;;7.55;75.32
65010;BME280;51556;50.002;22.014;2023-01-10T15:33:02;99015.55;;;7.54;75.67
65010;BME280;51556;50.002;22.014;2023-01-10T15:35:29;99014.33;;;7.54;75.39
65010;BME280;51556;50.002;22.014;2023-01-10T15:38:20;99022.33;;;7.48;75.76
65010;BME280;51556;50.002;22.014;2023-01-10T15:40:57;99027.09;;;7.37;75.71
65010;BME280;51556;50.002;22.014;2023-01-10T15:43:27;99034.86;;;7.33;75.62
65010;BME280;51556;50.002;22.014;2023-01-10T15:45:54;99036.86;;;7.28;75.63
65010;BME280;51556;50.002;22.014;2023-01-10T15:56:24;99063.14;;;7.06;76.32
65010;BME280;51556;50.002;22.014;2023-01-10T15:58:51;99067.73;;;7.03;76.42
65010;BME280;51556;50.002;22.014;2023-01-10T16:04:42;99081.02;;;7.05;76.70
65010;BME280;51556;50.002;22.014;2023-01-10T16:07:20;99086.84;;;7.02;76.26
65010;BME280;51556;50.002;22.014;2023-01-10T16:09:54;99098.27;;;6.99;76.26
65010;BME280;51556;50.002;22.014;2023-01-10T16:12:35;99099.83;;;7.00;76.25
65010;BME280;51556;50.002;22.014;2023-01-10T16:15:25;99102.81;;;6.99;76.43
65010;BME280;51556;50.002;22.014;2023-01-10T16:17:51;99101.27;;;6.97;76.22
65010;BME280;51556;50.002;22.014;2023-01-10T16:20:19;99101.80;;;6.97;76.50
65010;BME280;51556;50.002;22.014;2023-01-10T16:22:46;99111.71;;;7.01;76.24
65010;BME280;51556;50.002;22.014;2023-01-10T16:25:18;99117.61;;;7.04;76.22
65010;BME280;51556;50.002;22.014;2023-01-10T16:27:45;99120.77;;;7.04;76.10
65010;BME280;51556;50.002;22.014;2023-01-10T16:30:29;99122.46;;;7.06;76.25
65010;BME280;51556;50.002;22.014;2023-01-10T16:32:55;99120.67;;;7.08;76.29
65010;BME280;51556;50.002;22.014;2023-01-10T16:35:25;99131.77;;;7.06;76.38
65010;BME280;51556;50.002;22.014;2023-01-10T16:37:55;99138.65;;;7.01;76.32
65010;BME280;51556;50.002;22.014;2023-01-10T16:40:25;99142.21;;;6.98;76.55
65010;BME280;51556;50.002;22.014;2023-01-10T16:42:51;99144.19;;;6.93;76.25
65010;BME280;51556;50.002;22.014;2023-01-10T16:45:35;99149.98;;;6.92;76.45
65010;BME280;51556;50.002;22.014;2023-01-10T16:48:01;99153.13;;;6.93;76.45
65010;BME280;51556;50.002;22.014;2023-01-10T16:50:27;99157.89;;;6.90;76.44
65010;BME280;51556;50.002;22.014;2023-01-10T16:52:53;99163.22;;;6.84;76.22
65010;BME280;51556;50.002;22.014;2023-01-10T16:58:49;99164.73;;;6.75;76.68
65010;BME280;51556;50.002;22.014;2023-01-10T17:01:56;99170.88;;;6.72;76.87
65010;BME280;51556;50.002;22.014;2023-01-10T17:04:27;99176.15;;;6.71;76.84
65010;BME280;51556;50.002;22.014;2023-01-10T17:06:54;99182.10;;;6.71;76.86
65010;BME280;51556;50.002;22.014;2023-01-10T17:09:29;99188.88;;;6.74;76.92
65010;BME280;51556;50.002;22.014;2023-01-10T17:12:06;99194.60;;;6.79;76.65
65010;BME280;51556;50.002;22.014;2023-01-10T17:14:36;99204.70;;;6.82;76.55
65010;BME280;51556;50.002;22.014;2023-01-10T17:17:02;99207.65;;;6.85;76.59
65010;BME280;51556;50.002;22.014;2023-01-10T17:19:28;99215.51;;;6.86;76.47
65010;BME280;51556;50.002;22.014;2023-01-10T17:21:54;99212.55;;;6.85;76.32
65010;BME280;51556;50.002;22.014;2023-01-10T17:24:19;99216.04;;;6.86;76.43
65010;BME280;51556;50.002;22.014;2023-01-10T17:26:45;99216.53;;;6.88;76.35
65010;BME280;51556;50.002;22.014;2023-01-10T17:29:10;99219.63;;;6.92;76.33
65010;BME280;51556;50.002;22.014;2023-01-10T17:31:36;99224.70;;;6.92;76.14
65010;BME280;51556;50.002;22.014;2023-01-10T17:34:02;99226.27;;;6.93;76.12
65010;BME280;51556;50.002;22.014;2023-01-10T17:36:27;99229.23;;;6.94;75.99
65010;BME280;51556;50.002;22.014;2023-01-10T17:38:57;99230.67;;;6.90;75.86
65010;BME280;51556;50.002;22.014;2023-01-10T17:41:23;99237.20;;;6.86;75.95
65010;BME280;51556;50.002;22.014;2023-01-10T17:43:50;99241.27;;;6.82;75.95
65010;BME280;51556;50.002;22.014;2023-01-10T17:46:15;99248.48;;;6.79;76.14
65010;BME280;51556;50.002;22.014;2023-01-10T17:48:42;99252.00;;;6.78;76.05
65010;BME280;51556;50.002;22.014;2023-01-10T17:51:08;99261.11;;;6.77;76.18
65010;BME280;51556;50.002;22.014;2023-01-10T17:53:34;99262.34;;;6.77;76.16
65010;BME280;51556;50.002;22.014;2023-01-10T17:56:00;99263.95;;;6.72;76.17
65010;BME280;51556;50.002;22.014;2023-01-10T17:58:26;99269.63;;;6.66;76.12
65010;BME280;51556;50.002;22.014;2023-01-10T18:00:52;99270.36;;;6.64;76.07
65010;BME280;51556;50.002;22.014;2023-01-10T18:03:18;99273.51;;;6.65;75.93
65010;BME280;51556;50.002;22.014;2023-01-10T18:05:54;99272.34;;;6.59;76.13
65010;BME280;51556;50.002;22.014;2023-01-10T18:08:21;99274.64;;;6.57;76.04
65010;BME280;51556;50.002;22.014;2023-01-10T18:10:47;99276.92;;;6.56;76.28
65010;BME280;51556;50.002;22.014;2023-01-10T18:13:14;99273.60;;;6.55;76.24
65010;BME280;51556;50.002;22.014;2023-01-10T18:15:47;99276.90;;;6.57;76.32
65010;BME280;51556;50.002;22.014;2023-01-10T18:18:13;99279.32;;;6.61;76.06
65010;BME280;51556;50.002;22.014;2023-01-10T18:20:43;99283.00;;;6.60;76.00
65010;BME280;51556;50.002;22.014;2023-01-10T18:23:12;99290.00;;;6.60;76.19
65010;BME280;51556;50.002;22.014;2023-01-10T18:28:17;99302.38;;;6.64;76.33
65010;BME280;51556;50.002;22.014;2023-01-10T18:30:42;99307.06;;;6.67;75.94
65010;BME280;51556;50.002;22.014;2023-01-10T18:33:08;99305.29;;;6.68;75.83
65010;BME280;51556;50.002;22.014;2023-01-10T18:35:33;99305.69;;;6.64;76.10
65010;BME280;51556;50.002;22.014;2023-01-10T18:37:58;99307.98;;;6.62;76.01
65010;BME280;51556;50.002;22.014;2023-01-10T18:40:24;99307.30;;;6.61;76.04
65010;BME280;51556;50.002;22.014;2023-01-10T18:42:50;99304.17;;;6.59;76.10
65010;BME280;51556;50.002;22.014;2023-01-10T18:45:18;99304.38;;;6.56;76.00
65010;BME280;51556;50.002;22.014;2023-01-10T18:47:43;99301.97;;;6.52;76.36
65010;BME280;51556;50.002;22.014;2023-01-10T18:50:09;99308.48;;;6.48;76.26
65010;BME280;51556;50.002;22.014;2023-01-10T18:52:35;99310.39;;;6.48;76.70
65010;BME280;51556;50.002;22.014;2023-01-10T18:55:00;99316.17;;;6.47;76.64
65010;BME280;51556;50.002;22.014;2023-01-10T18:57:26;99315.33;;;6.45;76.89
65010;BME280;51556;50.002;22.014;2023-01-10T18:59:52;99316.73;;;6.44;76.96
65010;BME280;51556;50.002;22.014;2023-01-10T19:02:18;99313.59;;;6.43;76.90
65010;BME280;51556;50.002;22.014;2023-01-10T19:04:43;99317.48;;;6.38;77.17
65010;BME280;51556;50.002;22.014;2023-01-10T19:07:09;99323.13;;;6.33;77.34
65010;BME280;51556;50.002;22.014;2023-01-10T19:09:34;99324.23;;;6.30;77.49
65010;BME280;51556;50.002;22.014;2023-01-10T19:12:00;99330.52;;;6.30;77.45
65010;BME280;51556;50.002;22.014;2023-01-10T19:14:25;99336.12;;;6.29;77.58
65010;BME280;51556;50.002;22.014;2023-01-10T19:16:51;99341.02;;;6.27;77.72
65010;BME280;51556;50.002;22.014;2023-01-10T19:19:16;99342.27;;;6.24;77.74
65010;BME280;51556;50.002;22.014;2023-01-10T19:21:42;99343.50;;;6.24;77.69
65010;BME280;51556;50.002;22.014;2023-01-10T19:24:18;99354.33;;;6.25;77.77
65010;BME280;51556;50.002;22.014;2023-01-10T19:26:44;99360.33;;;6.18;77.98
65010;BME280;51556;50.002;22.014;2023-01-10T19:29:09;99359.23;;;6.23;77.84
65010;BME280;51556;50.002;22.014;2023-01-10T19:31:37;99356.10;;;6.22;77.86
65010;BME280;51556;50.002;22.014;2023-01-10T19:34:03;99353.13;;;6.23;77.79
65010;BME280;51556;50.002;22.014;2023-01-10T19:36:28;99355.23;;;6.22;77.68
65010;BME280;51556;50.002;22.014;2023-01-10T19:38:59;99358.02;;;6.22;77.74
65010;BME280;51556;50.002;22.014;2023-01-10T19:41:29;99363.94;;;6.26;77.73
65010;BME280;51556;50.002;22.014;2023-01-10T19:43:56;99371.08;;;6.30;77.75
65010;BME280;51556;50.002;22.014;2023-01-10T19:46:22;99372.77;;;6.32;77.70
65010;BME280;51556;50.002;22.014;2023-01-10T19:48:48;99377.52;;;6.31;77.67
65010;BME280;51556;50.002;22.014;2023-01-10T19:51:14;99381.02;;;6.31;77.79
65010;BME280;51556;50.002;22.014;2023-01-10T19:53:42;99382.20;;;6.33;77.63
65010;BME280;51556;50.002;22.014;2023-01-10T19:56:14;99388.83;;;6.36;77.72
65010;BME280;51556;50.002;22.014;2023-01-10T19:58:49;99389.57;;;6.31;77.77
65010;BME280;51556;50.002;22.014;2023-01-10T20:01:23;99389.45;;;6.26;77.78
65010;BME280;51556;50.002;22.014;2023-01-10T20:04:05;99397.52;;;6.22;77.80
65010;BME280;51556;50.002;22.014;2023-01-10T20:06:34;99396.30;;;6.23;77.81
65010;BME280;51556;50.002;22.014;2023-01-10T20:09:00;99401.17;;;6.24;77.93
65010;BME280;51556;50.002;22.014;2023-01-10T20:11:29;99402.23;;;6.25;77.50
65010;BME280;51556;50.002;22.014;2023-01-10T20:14:15;99402.95;;;6.22;77.74
65010;BME280;51556;50.002;22.014;2023-01-10T20:16:54;99405.56;;;6.22;77.56
65010;BME280;51556;50.002;22.014;2023-01-10T20:19:20;99404.85;;;6.24;77.59
65010;BME280;51556;50.002;22.014;2023-01-10T20:21:46;99404.69;;;6.24;77.69
65010;BME280;51556;50.002;22.014;2023-01-10T20:24:14;99403.64;;;6.21;77.51
65010;BME280;51556;50.002;22.014;2023-01-10T20:26:41;99412.56;;;6.21;77.64
65010;BME280;51556;50.002;22.014;2023-01-10T20:29:07;99405.60;;;6.17;77.45
65010;BME280;51556;50.002;22.014;2023-01-10T20:31:39;99411.22;;;6.12;77.76
65010;BME280;51556;50.002;22.014;2023-01-10T20:34:06;99407.53;;;6.16;77.57
65010;BME280;51556;50.002;22.014;2023-01-10T20:36:32;99412.41;;;6.18;77.48
65010;BME280;51556;50.002;22.014;2023-01-10T20:38:58;99411.00;;;6.21;77.48
65010;BME280;51556;50.002;22.014;2023-01-10T20:41:28;99417.46;;;6.21;77.32
65010;BME280;51556;50.002;22.014;2023-01-10T20:43:57;99418.69;;;6.20;77.38
65010;BME280;51556;50.002;22.014;2023-01-10T20:46:27;99425.49;;;6.23;77.39
65010;BME280;51556;50.002;22.014;2023-01-10T20:49:02;99422.15;;;6.25;77.29
65010;BME280;51556;50.002;22.014;2023-01-10T20:51:30;99422.52;;;6.24;77.07
65010;BME280;51556;50.002;22.014;2023-01-10T20:53:58;99422.02;;;6.20;77.05
65010;BME280;51556;50.002;22.014;2023-01-10T20:56:27;99423.25;;;6.17;77.08